This is the latest recevied weather packets stored in our database for station/object YN1ZSC-13. If no packets are shown the sender has not sent any weather packets the latest 10 day(s).
| Time | Temp. | Humidity | Pressure | Rain* | Wind** | Luminosity | Snow |
|---|---|---|---|---|---|---|---|
| 1778269839 | 36.67° C | 32% | 1006 hPa | 0 mm | - | - | - |
| 1778269239 | 33.89° C | 37% | 1007 hPa | 0 mm | - | - | - |
| 1778268638 | 33.33° C | 37% | 1008 hPa | 0 mm | - | - | - |
| 1778268037 | 33.33° C | 37% | 1008 hPa | 0 mm | - | - | - |
| 1778267437 | 33.89° C | 37% | 1008 hPa | 0 mm | - | - | - |
| 1778266837 | 33.89° C | 37% | 1008 hPa | 0 mm | - | - | - |
| 1778266236 | 34.44° C | 37% | 1008 hPa | 0 mm | - | - | - |
| 1778265635 | 34.44° C | 37% | 1008 hPa | 0 mm | - | - | - |
| 1778265035 | 35° C | 37% | 1008 hPa | 0 mm | - | - | - |
| 1778264434 | 35.56° C | 36% | 1009 hPa | 0 mm | - | - | - |
| 1778263834 | 32.22° C | 42% | 1009 hPa | 0 mm | - | - | - |
| 1778263233 | 32.22° C | 43% | 1009 hPa | 0 mm | - | - | - |
| 1778262633 | 32.22° C | 43% | 1009 hPa | 0 mm | - | - | - |
| 1778262032 | 32.78° C | 43% | 1009 hPa | 0 mm | - | - | - |
| 1778261431 | 31.67° C | 46% | 1009 hPa | 0 mm | - | - | - |
| 1778260831 | 31.67° C | 46% | 1010 hPa | 0 mm | - | - | - |
| 1778260230 | 32.22° C | 46% | 1010 hPa | 0 mm | - | - | - |
| 1778259630 | 32.22° C | 46% | 1010 hPa | 0 mm | - | - | - |
| 1778259029 | 32.78° C | 46% | 1011 hPa | 0 mm | - | - | - |
| 1778258429 | 32.78° C | 46% | 1011 hPa | 0 mm | - | - | - |
| 1778257828 | 29.44° C | 55% | 1011 hPa | 0 mm | - | - | - |
| 1778257227 | 30° C | 55% | 1011 hPa | 0 mm | - | - | - |
| 1778256627 | 30.56° C | 55% | 1011 hPa | 0 mm | - | - | - |
| 1778256026 | 31.11° C | 55% | 1011 hPa | 0 mm | - | - | - |
| 1778255426 | 31.11° C | 55% | 1011 hPa | 0 mm | - | - | - |
* Rain latest hour (hover to see other rain measurements)
** Current wind speed in m/s (hover to see current wind gust speed)